sensor_id;sensor_type;location;lat;lon;timestamp;P1;durP1;ratioP1;P2;durP2;ratioP2
38911;SDS011;28444;48.056;14.408;2023-06-10T00:00:10;15.32;;;10.73;;
38911;SDS011;28444;48.056;14.408;2023-06-10T00:02:59;19.42;;;11.35;;
38911;SDS011;28444;48.056;14.408;2023-06-10T00:05:46;17.17;;;12.00;;
38911;SDS011;28444;48.056;14.408;2023-06-10T00:08:33;13.57;;;11.60;;
38911;SDS011;28444;48.056;14.408;2023-06-10T00:11:21;18.55;;;12.20;;
38911;SDS011;28444;48.056;14.408;2023-06-10T00:14:08;16.63;;;11.95;;
38911;SDS011;28444;48.056;14.408;2023-06-10T00:16:55;19.50;;;12.45;;
38911;SDS011;28444;48.056;14.408;2023-06-10T00:19:41;15.15;;;12.60;;
38911;SDS011;28444;48.056;14.408;2023-06-10T00:22:30;15.32;;;11.88;;
38911;SDS011;28444;48.056;14.408;2023-06-10T00:25:18;18.65;;;13.10;;
38911;SDS011;28444;48.056;14.408;2023-06-10T00:28:05;21.08;;;11.57;;
38911;SDS011;28444;48.056;14.408;2023-06-10T00:30:52;21.65;;;12.25;;
38911;SDS011;28444;48.056;14.408;2023-06-10T00:33:39;19.67;;;12.20;;
38911;SDS011;28444;48.056;14.408;2023-06-10T00:36:26;15.98;;;11.95;;
38911;SDS011;28444;48.056;14.408;2023-06-10T00:39:13;17.70;;;12.45;;
38911;SDS011;28444;48.056;14.408;2023-06-10T00:42:00;14.80;;;10.95;;
38911;SDS011;28444;48.056;14.408;2023-06-10T00:44:50;19.52;;;11.23;;
38911;SDS011;28444;48.056;14.408;2023-06-10T00:47:38;17.73;;;11.48;;
38911;SDS011;28444;48.056;14.408;2023-06-10T00:50:26;14.98;;;11.45;;
38911;SDS011;28444;48.056;14.408;2023-06-10T00:53:13;13.25;;;10.73;;
38911;SDS011;28444;48.056;14.408;2023-06-10T00:56:01;13.02;;;10.32;;
38911;SDS011;28444;48.056;14.408;2023-06-10T00:58:48;17.70;;;12.07;;
38911;SDS011;28444;48.056;14.408;2023-06-10T01:01:35;18.63;;;11.32;;
38911;SDS011;28444;48.056;14.408;2023-06-10T01:04:24;15.15;;;12.30;;
38911;SDS011;28444;48.056;14.408;2023-06-10T01:07:17;19.27;;;11.50;;
38911;SDS011;28444;48.056;14.408;2023-06-10T01:13:02;15.23;;;11.45;;
38911;SDS011;28444;48.056;14.408;2023-06-10T01:15:53;15.13;;;12.32;;
38911;SDS011;28444;48.056;14.408;2023-06-10T01:18:40;19.00;;;12.30;;
38911;SDS011;28444;48.056;14.408;2023-06-10T01:21:28;14.73;;;11.85;;
38911;SDS011;28444;48.056;14.408;2023-06-10T01:24:18;16.30;;;11.50;;
38911;SDS011;28444;48.056;14.408;2023-06-10T01:27:08;15.57;;;10.73;;
38911;SDS011;28444;48.056;14.408;2023-06-10T01:30:03;15.30;;;11.45;;
38911;SDS011;28444;48.056;14.408;2023-06-10T01:32:57;13.98;;;12.32;;
38911;SDS011;28444;48.056;14.408;2023-06-10T01:35:47;18.58;;;12.57;;
38911;SDS011;28444;48.056;14.408;2023-06-10T01:38:44;19.58;;;11.18;;
38911;SDS011;28444;48.056;14.408;2023-06-10T01:41:33;20.80;;;11.55;;
38911;SDS011;28444;48.056;14.408;2023-06-10T01:44:22;17.17;;;11.95;;
38911;SDS011;28444;48.056;14.408;2023-06-10T01:47:09;14.70;;;11.35;;
38911;SDS011;28444;48.056;14.408;2023-06-10T01:49:56;14.10;;;10.88;;
38911;SDS011;28444;48.056;14.408;2023-06-10T01:52:43;14.88;;;11.30;;
38911;SDS011;28444;48.056;14.408;2023-06-10T01:55:30;15.10;;;11.70;;
38911;SDS011;28444;48.056;14.408;2023-06-10T01:58:17;19.17;;;12.27;;
38911;SDS011;28444;48.056;14.408;2023-06-10T02:01:04;15.30;;;11.30;;
38911;SDS011;28444;48.056;14.408;2023-06-10T02:03:51;13.85;;;10.98;;
38911;SDS011;28444;48.056;14.408;2023-06-10T02:06:38;14.98;;;11.60;;
38911;SDS011;28444;48.056;14.408;2023-06-10T02:09:25;15.18;;;11.95;;
38911;SDS011;28444;48.056;14.408;2023-06-10T02:12:12;15.18;;;11.60;;
38911;SDS011;28444;48.056;14.408;2023-06-10T02:15:02;14.05;;;11.73;;
38911;SDS011;28444;48.056;14.408;2023-06-10T02:17:49;15.55;;;11.13;;
38911;SDS011;28444;48.056;14.408;2023-06-10T02:20:37;14.70;;;10.85;;
38911;SDS011;28444;48.056;14.408;2023-06-10T02:23:24;16.00;;;11.20;;
38911;SDS011;28444;48.056;14.408;2023-06-10T02:26:11;16.48;;;11.77;;
38911;SDS011;28444;48.056;14.408;2023-06-10T02:28:58;15.95;;;11.00;;
38911;SDS011;28444;48.056;14.408;2023-06-10T02:31:45;16.30;;;11.73;;
38911;SDS011;28444;48.056;14.408;2023-06-10T02:34:32;16.00;;;11.07;;
38911;SDS011;28444;48.056;14.408;2023-06-10T02:37:20;16.95;;;11.60;;
38911;SDS011;28444;48.056;14.408;2023-06-10T02:40:07;18.55;;;11.15;;
38911;SDS011;28444;48.056;14.408;2023-06-10T02:42:55;15.93;;;11.80;;
38911;SDS011;28444;48.056;14.408;2023-06-10T02:45:42;14.20;;;11.10;;
38911;SDS011;28444;48.056;14.408;2023-06-10T02:48:29;15.23;;;11.57;;
38911;SDS011;28444;48.056;14.408;2023-06-10T02:51:16;15.90;;;12.43;;
38911;SDS011;28444;48.056;14.408;2023-06-10T02:54:03;17.77;;;11.90;;
38911;SDS011;28444;48.056;14.408;2023-06-10T02:56:50;17.58;;;10.68;;
38911;SDS011;28444;48.056;14.408;2023-06-10T02:59:38;21.52;;;10.77;;
38911;SDS011;28444;48.056;14.408;2023-06-10T03:02:25;15.73;;;12.32;;
38911;SDS011;28444;48.056;14.408;2023-06-10T03:05:15;16.90;;;12.10;;
38911;SDS011;28444;48.056;14.408;2023-06-10T03:08:03;17.80;;;11.73;;
38911;SDS011;28444;48.056;14.408;2023-06-10T03:10:50;15.88;;;11.73;;
38911;SDS011;28444;48.056;14.408;2023-06-10T03:13:40;17.45;;;13.13;;
38911;SDS011;28444;48.056;14.408;2023-06-10T03:16:27;20.52;;;13.23;;
38911;SDS011;28444;48.056;14.408;2023-06-10T03:19:17;16.65;;;12.52;;
38911;SDS011;28444;48.056;14.408;2023-06-10T03:22:07;19.67;;;11.70;;
38911;SDS011;28444;48.056;14.408;2023-06-10T03:24:58;15.93;;;12.68;;
38911;SDS011;28444;48.056;14.408;2023-06-10T03:27:46;19.33;;;11.25;;
38911;SDS011;28444;48.056;14.408;2023-06-10T03:30:33;18.30;;;11.77;;
38911;SDS011;28444;48.056;14.408;2023-06-10T03:33:20;16.58;;;11.88;;
38911;SDS011;28444;48.056;14.408;2023-06-10T03:36:07;18.27;;;11.35;;
38911;SDS011;28444;48.056;14.408;2023-06-10T03:38:54;20.45;;;12.55;;
38911;SDS011;28444;48.056;14.408;2023-06-10T03:41:43;15.65;;;12.00;;
38911;SDS011;28444;48.056;14.408;2023-06-10T03:44:30;17.92;;;12.07;;
38911;SDS011;28444;48.056;14.408;2023-06-10T03:47:17;17.40;;;13.13;;
38911;SDS011;28444;48.056;14.408;2023-06-10T03:50:05;15.65;;;11.98;;
38911;SDS011;28444;48.056;14.408;2023-06-10T03:52:52;14.90;;;11.50;;
38911;SDS011;28444;48.056;14.408;2023-06-10T03:55:39;18.58;;;12.65;;
38911;SDS011;28444;48.056;14.408;2023-06-10T03:58:26;17.50;;;12.70;;
38911;SDS011;28444;48.056;14.408;2023-06-10T04:01:13;21.70;;;13.30;;
38911;SDS011;28444;48.056;14.408;2023-06-10T04:03:59;20.80;;;13.90;;
38911;SDS011;28444;48.056;14.408;2023-06-10T04:06:47;18.83;;;12.65;;
38911;SDS011;28444;48.056;14.408;2023-06-10T04:09:35;18.27;;;12.85;;
38911;SDS011;28444;48.056;14.408;2023-06-10T04:12:22;18.35;;;12.98;;
38911;SDS011;28444;48.056;14.408;2023-06-10T04:15:09;17.73;;;13.45;;
38911;SDS011;28444;48.056;14.408;2023-06-10T04:17:57;19.85;;;13.27;;
38911;SDS011;28444;48.056;14.408;2023-06-10T04:20:44;17.58;;;13.68;;
38911;SDS011;28444;48.056;14.408;2023-06-10T04:23:31;17.10;;;13.38;;
38911;SDS011;28444;48.056;14.408;2023-06-10T04:26:18;16.50;;;13.05;;
38911;SDS011;28444;48.056;14.408;2023-06-10T04:29:05;15.77;;;12.88;;
38911;SDS011;28444;48.056;14.408;2023-06-10T04:31:52;14.52;;;12.18;;
38911;SDS011;28444;48.056;14.408;2023-06-10T04:34:39;13.38;;;11.13;;
38911;SDS011;28444;48.056;14.408;2023-06-10T04:37:26;17.42;;;11.80;;
38911;SDS011;28444;48.056;14.408;2023-06-10T04:40:15;17.88;;;10.98;;
38911;SDS011;28444;48.056;14.408;2023-06-10T04:43:03;14.82;;;11.07;;
38911;SDS011;28444;48.056;14.408;2023-06-10T04:45:50;15.13;;;12.57;;
38911;SDS011;28444;48.056;14.408;2023-06-10T04:48:38;14.45;;;11.55;;
38911;SDS011;28444;48.056;14.408;2023-06-10T04:51:25;19.95;;;12.38;;
38911;SDS011;28444;48.056;14.408;2023-06-10T04:54:12;15.85;;;12.07;;
38911;SDS011;28444;48.056;14.408;2023-06-10T04:56:59;17.27;;;13.07;;
38911;SDS011;28444;48.056;14.408;2023-06-10T04:59:47;16.48;;;12.07;;
38911;SDS011;28444;48.056;14.408;2023-06-10T05:02:34;14.90;;;11.73;;
38911;SDS011;28444;48.056;14.408;2023-06-10T05:05:21;16.25;;;11.38;;
38911;SDS011;28444;48.056;14.408;2023-06-10T05:08:08;16.70;;;11.80;;
38911;SDS011;28444;48.056;14.408;2023-06-10T05:10:55;14.45;;;11.82;;
38911;SDS011;28444;48.056;14.408;2023-06-10T05:13:42;15.93;;;12.10;;
38911;SDS011;28444;48.056;14.408;2023-06-10T05:16:30;17.38;;;12.02;;
38911;SDS011;28444;48.056;14.408;2023-06-10T05:19:17;27.73;;;12.90;;
38911;SDS011;28444;48.056;14.408;2023-06-10T05:22:04;21.00;;;12.55;;
38911;SDS011;28444;48.056;14.408;2023-06-10T05:24:51;22.90;;;13.07;;
38911;SDS011;28444;48.056;14.408;2023-06-10T05:27:39;18.10;;;11.40;;
38911;SDS011;28444;48.056;14.408;2023-06-10T05:30:28;18.63;;;13.38;;
38911;SDS011;28444;48.056;14.408;2023-06-10T05:33:15;16.70;;;11.05;;
38911;SDS011;28444;48.056;14.408;2023-06-10T05:36:02;15.43;;;12.75;;
38911;SDS011;28444;48.056;14.408;2023-06-10T05:38:49;19.40;;;13.35;;
38911;SDS011;28444;48.056;14.408;2023-06-10T05:41:36;15.07;;;12.65;;
38911;SDS011;28444;48.056;14.408;2023-06-10T05:44:23;18.52;;;12.48;;
38911;SDS011;28444;48.056;14.408;2023-06-10T05:47:10;15.50;;;12.30;;
38911;SDS011;28444;48.056;14.408;2023-06-10T05:49:57;14.95;;;11.38;;
38911;SDS011;28444;48.056;14.408;2023-06-10T05:52:44;15.77;;;12.07;;
38911;SDS011;28444;48.056;14.408;2023-06-10T05:55:31;15.75;;;10.93;;
38911;SDS011;28444;48.056;14.408;2023-06-10T05:58:18;15.90;;;12.15;;
38911;SDS011;28444;48.056;14.408;2023-06-10T06:01:04;13.77;;;10.95;;
38911;SDS011;28444;48.056;14.408;2023-06-10T06:03:51;14.27;;;10.95;;
38911;SDS011;28444;48.056;14.408;2023-06-10T06:06:39;16.83;;;12.23;;
38911;SDS011;28444;48.056;14.408;2023-06-10T06:09:27;14.18;;;11.63;;
38911;SDS011;28444;48.056;14.408;2023-06-10T06:12:14;13.75;;;10.75;;
38911;SDS011;28444;48.056;14.408;2023-06-10T06:15:01;14.60;;;11.38;;
38911;SDS011;28444;48.056;14.408;2023-06-10T06:17:48;15.27;;;10.65;;
38911;SDS011;28444;48.056;14.408;2023-06-10T06:20:35;12.15;;;10.70;;
38911;SDS011;28444;48.056;14.408;2023-06-10T06:23:22;16.67;;;11.23;;
38911;SDS011;28444;48.056;14.408;2023-06-10T06:26:09;12.18;;;9.93;;
38911;SDS011;28444;48.056;14.408;2023-06-10T06:28:56;12.57;;;9.88;;
38911;SDS011;28444;48.056;14.408;2023-06-10T06:31:43;11.18;;;9.27;;
38911;SDS011;28444;48.056;14.408;2023-06-10T06:34:30;13.43;;;10.73;;
38911;SDS011;28444;48.056;14.408;2023-06-10T06:37:18;17.75;;;10.70;;
38911;SDS011;28444;48.056;14.408;2023-06-10T06:40:05;17.17;;;10.95;;
38911;SDS011;28444;48.056;14.408;2023-06-10T06:42:52;14.68;;;11.27;;
38911;SDS011;28444;48.056;14.408;2023-06-10T06:45:39;23.33;;;11.18;;
38911;SDS011;28444;48.056;14.408;2023-06-10T06:48:26;12.02;;;8.82;;
38911;SDS011;28444;48.056;14.408;2023-06-10T06:51:13;14.90;;;9.45;;
38911;SDS011;28444;48.056;14.408;2023-06-10T06:54:01;11.20;;;8.98;;
38911;SDS011;28444;48.056;14.408;2023-06-10T06:56:48;13.65;;;9.75;;
38911;SDS011;28444;48.056;14.408;2023-06-10T06:59:35;11.82;;;9.98;;
38911;SDS011;28444;48.056;14.408;2023-06-10T07:02:21;16.92;;;10.52;;
38911;SDS011;28444;48.056;14.408;2023-06-10T07:05:10;12.10;;;8.98;;
38911;SDS011;28444;48.056;14.408;2023-06-10T07:07:57;11.45;;;9.32;;
38911;SDS011;28444;48.056;14.408;2023-06-10T07:10:44;13.68;;;10.93;;
38911;SDS011;28444;48.056;14.408;2023-06-10T07:13:31;14.95;;;9.63;;
38911;SDS011;28444;48.056;14.408;2023-06-10T07:16:18;10.35;;;8.82;;
38911;SDS011;28444;48.056;14.408;2023-06-10T07:19:07;14.32;;;10.77;;
38911;SDS011;28444;48.056;14.408;2023-06-10T07:21:54;13.88;;;9.63;;
38911;SDS011;28444;48.056;14.408;2023-06-10T07:24:41;11.75;;;8.57;;
38911;SDS011;28444;48.056;14.408;2023-06-10T07:27:28;14.63;;;10.43;;
38911;SDS011;28444;48.056;14.408;2023-06-10T07:30:14;10.20;;;8.38;;
38911;SDS011;28444;48.056;14.408;2023-06-10T07:33:02;13.35;;;9.45;;
38911;SDS011;28444;48.056;14.408;2023-06-10T07:35:49;13.48;;;8.70;;
38911;SDS011;28444;48.056;14.408;2023-06-10T07:38:36;9.80;;;8.10;;
38911;SDS011;28444;48.056;14.408;2023-06-10T07:41:23;11.38;;;9.27;;
38911;SDS011;28444;48.056;14.408;2023-06-10T07:44:11;13.23;;;9.57;;
38911;SDS011;28444;48.056;14.408;2023-06-10T07:46:58;10.52;;;8.73;;
38911;SDS011;28444;48.056;14.408;2023-06-10T07:49:45;12.55;;;8.70;;
38911;SDS011;28444;48.056;14.408;2023-06-10T07:52:32;14.50;;;10.00;;
38911;SDS011;28444;48.056;14.408;2023-06-10T07:55:19;13.68;;;11.05;;
38911;SDS011;28444;48.056;14.408;2023-06-10T07:58:06;13.70;;;10.48;;
38911;SDS011;28444;48.056;14.408;2023-06-10T08:00:53;11.50;;;9.73;;
38911;SDS011;28444;48.056;14.408;2023-06-10T08:03:40;11.02;;;9.02;;
38911;SDS011;28444;48.056;14.408;2023-06-10T08:06:27;12.07;;;9.40;;
38911;SDS011;28444;48.056;14.408;2023-06-10T08:09:14;11.98;;;9.43;;
38911;SDS011;28444;48.056;14.408;2023-06-10T08:12:01;18.35;;;10.35;;
38911;SDS011;28444;48.056;14.408;2023-06-10T08:14:48;12.35;;;9.13;;
38911;SDS011;28444;48.056;14.408;2023-06-10T08:17:36;12.00;;;9.07;;
38911;SDS011;28444;48.056;14.408;2023-06-10T08:20:24;13.25;;;10.55;;
38911;SDS011;28444;48.056;14.408;2023-06-10T08:23:12;12.13;;;9.02;;
38911;SDS011;28444;48.056;14.408;2023-06-10T08:25:58;13.13;;;9.10;;
38911;SDS011;28444;48.056;14.408;2023-06-10T08:28:45;10.77;;;8.90;;
38911;SDS011;28444;48.056;14.408;2023-06-10T08:31:32;12.30;;;9.25;;
38911;SDS011;28444;48.056;14.408;2023-06-10T08:34:19;13.68;;;9.63;;
38911;SDS011;28444;48.056;14.408;2023-06-10T08:37:07;11.27;;;8.45;;
38911;SDS011;28444;48.056;14.408;2023-06-10T08:39:54;10.63;;;8.88;;
38911;SDS011;28444;48.056;14.408;2023-06-10T08:45:36;16.75;;;9.60;;
38911;SDS011;28444;48.056;14.408;2023-06-10T08:48:24;11.10;;;9.32;;
38911;SDS011;28444;48.056;14.408;2023-06-10T08:51:13;12.02;;;9.50;;
38911;SDS011;28444;48.056;14.408;2023-06-10T08:54:05;14.20;;;9.05;;
38911;SDS011;28444;48.056;14.408;2023-06-10T08:57:15;15.15;;;9.38;;
38911;SDS011;28444;48.056;14.408;2023-06-10T09:00:06;11.57;;;9.97;;
38911;SDS011;28444;48.056;14.408;2023-06-10T09:02:57;12.20;;;10.05;;
38911;SDS011;28444;48.056;14.408;2023-06-10T09:05:50;13.57;;;10.23;;
38911;SDS011;28444;48.056;14.408;2023-06-10T09:08:37;14.20;;;8.75;;
38911;SDS011;28444;48.056;14.408;2023-06-10T09:11:25;9.95;;;8.23;;
38911;SDS011;28444;48.056;14.408;2023-06-10T09:14:13;11.82;;;9.45;;
38911;SDS011;28444;48.056;14.408;2023-06-10T09:17:01;9.82;;;8.52;;
38911;SDS011;28444;48.056;14.408;2023-06-10T09:19:48;13.27;;;10.52;;
38911;SDS011;28444;48.056;14.408;2023-06-10T09:22:36;11.60;;;9.60;;
38911;SDS011;28444;48.056;14.408;2023-06-10T09:25:34;15.63;;;9.52;;
38911;SDS011;28444;48.056;14.408;2023-06-10T09:28:24;13.07;;;8.63;;
38911;SDS011;28444;48.056;14.408;2023-06-10T09:31:12;12.35;;;9.02;;
38911;SDS011;28444;48.056;14.408;2023-06-10T09:34:13;9.98;;;8.93;;
38911;SDS011;28444;48.056;14.408;2023-06-10T09:37:03;11.55;;;9.35;;
38911;SDS011;28444;48.056;14.408;2023-06-10T09:40:00;11.15;;;10.02;;
38911;SDS011;28444;48.056;14.408;2023-06-10T09:42:53;10.48;;;8.85;;
38911;SDS011;28444;48.056;14.408;2023-06-10T09:45:49;14.38;;;8.65;;
38911;SDS011;28444;48.056;14.408;2023-06-10T09:48:43;10.48;;;9.23;;
38911;SDS011;28444;48.056;14.408;2023-06-10T09:51:31;14.65;;;8.80;;
38911;SDS011;28444;48.056;14.408;2023-06-10T09:54:19;9.77;;;8.43;;
38911;SDS011;28444;48.056;14.408;2023-06-10T09:57:07;10.57;;;8.13;;
38911;SDS011;28444;48.056;14.408;2023-06-10T09:59:55;9.00;;;8.05;;
38911;SDS011;28444;48.056;14.408;2023-06-10T10:02:46;10.15;;;7.28;;
38911;SDS011;28444;48.056;14.408;2023-06-10T10:05:38;11.98;;;7.53;;
38911;SDS011;28444;48.056;14.408;2023-06-10T10:08:26;8.93;;;7.38;;
38911;SDS011;28444;48.056;14.408;2023-06-10T10:11:20;8.75;;;7.63;;
38911;SDS011;28444;48.056;14.408;2023-06-10T10:14:08;9.65;;;7.07;;
38911;SDS011;28444;48.056;14.408;2023-06-10T10:16:56;11.07;;;7.25;;
38911;SDS011;28444;48.056;14.408;2023-06-10T10:19:46;7.50;;;6.80;;
38911;SDS011;28444;48.056;14.408;2023-06-10T10:22:38;6.85;;;6.15;;
38911;SDS011;28444;48.056;14.408;2023-06-10T10:25:31;7.82;;;7.00;;
38911;SDS011;28444;48.056;14.408;2023-06-10T10:28:24;10.13;;;7.63;;
38911;SDS011;28444;48.056;14.408;2023-06-10T10:31:21;12.38;;;7.15;;
38911;SDS011;28444;48.056;14.408;2023-06-10T10:34:09;10.48;;;7.75;;
38911;SDS011;28444;48.056;14.408;2023-06-10T10:37:01;8.55;;;7.20;;
38911;SDS011;28444;48.056;14.408;2023-06-10T10:39:49;11.25;;;6.55;;
38911;SDS011;28444;48.056;14.408;2023-06-10T10:42:37;10.23;;;6.88;;
38911;SDS011;28444;48.056;14.408;2023-06-10T10:45:27;16.55;;;7.88;;
38911;SDS011;28444;48.056;14.408;2023-06-10T10:48:15;7.25;;;6.22;;
38911;SDS011;28444;48.056;14.408;2023-06-10T10:51:03;7.20;;;6.50;;
38911;SDS011;28444;48.056;14.408;2023-06-10T11:00:00;6.28;;;5.68;;
38911;SDS011;28444;48.056;14.408;2023-06-10T11:02:48;8.50;;;5.15;;
38911;SDS011;28444;48.056;14.408;2023-06-10T11:05:42;7.88;;;5.55;;
38911;SDS011;28444;48.056;14.408;2023-06-10T11:11:25;8.60;;;6.30;;
38911;SDS011;28444;48.056;14.408;2023-06-10T11:14:13;8.98;;;6.22;;
38911;SDS011;28444;48.056;14.408;2023-06-10T11:17:20;7.20;;;6.50;;
38911;SDS011;28444;48.056;14.408;2023-06-10T11:20:08;7.95;;;5.47;;
38911;SDS011;28444;48.056;14.408;2023-06-10T11:22:58;7.38;;;6.25;;
38911;SDS011;28444;48.056;14.408;2023-06-10T11:25:47;8.93;;;6.00;;
38911;SDS011;28444;48.056;14.408;2023-06-10T11:28:34;8.40;;;6.38;;
38911;SDS011;28444;48.056;14.408;2023-06-10T11:31:33;9.43;;;5.57;;
38911;SDS011;28444;48.056;14.408;2023-06-10T11:34:25;7.45;;;6.47;;
38911;SDS011;28444;48.056;14.408;2023-06-10T11:37:13;7.20;;;6.18;;
38911;SDS011;28444;48.056;14.408;2023-06-10T11:40:01;8.82;;;5.90;;
38911;SDS011;28444;48.056;14.408;2023-06-10T11:42:49;7.65;;;6.75;;
38911;SDS011;28444;48.056;14.408;2023-06-10T11:45:36;8.82;;;5.60;;
38911;SDS011;28444;48.056;14.408;2023-06-10T11:48:23;10.15;;;6.63;;
38911;SDS011;28444;48.056;14.408;2023-06-10T11:51:10;9.68;;;6.65;;
38911;SDS011;28444;48.056;14.408;2023-06-10T11:53:57;8.32;;;6.22;;
38911;SDS011;28444;48.056;14.408;2023-06-10T11:56:44;6.35;;;5.43;;
38911;SDS011;28444;48.056;14.408;2023-06-10T11:59:31;8.48;;;5.90;;
38911;SDS011;28444;48.056;14.408;2023-06-10T12:02:18;11.02;;;5.80;;
38911;SDS011;28444;48.056;14.408;2023-06-10T12:05:12;11.48;;;5.82;;
38911;SDS011;28444;48.056;14.408;2023-06-10T12:08:09;8.27;;;5.80;;
38911;SDS011;28444;48.056;14.408;2023-06-10T12:10:57;6.60;;;5.80;;
38911;SDS011;28444;48.056;14.408;2023-06-10T12:13:48;6.80;;;6.05;;
38911;SDS011;28444;48.056;14.408;2023-06-10T12:16:36;6.77;;;6.13;;
38911;SDS011;28444;48.056;14.408;2023-06-10T12:19:23;7.68;;;6.10;;
38911;SDS011;28444;48.056;14.408;2023-06-10T12:22:10;13.57;;;6.70;;
38911;SDS011;28444;48.056;14.408;2023-06-10T12:24:57;6.47;;;5.63;;
38911;SDS011;28444;48.056;14.408;2023-06-10T12:27:53;7.38;;;6.47;;
38911;SDS011;28444;48.056;14.408;2023-06-10T12:30:40;9.80;;;6.53;;
38911;SDS011;28444;48.056;14.408;2023-06-10T12:33:27;6.95;;;6.30;;
38911;SDS011;28444;48.056;14.408;2023-06-10T12:36:17;6.22;;;5.40;;
38911;SDS011;28444;48.056;14.408;2023-06-10T12:39:04;5.45;;;4.95;;
38911;SDS011;28444;48.056;14.408;2023-06-10T12:41:55;5.78;;;5.03;;
38911;SDS011;28444;48.056;14.408;2023-06-10T12:44:42;7.43;;;4.55;;
38911;SDS011;28444;48.056;14.408;2023-06-10T12:47:33;6.40;;;4.18;;
38911;SDS011;28444;48.056;14.408;2023-06-10T12:50:25;5.07;;;4.57;;
38911;SDS011;28444;48.056;14.408;2023-06-10T12:53:12;5.13;;;4.63;;
38911;SDS011;28444;48.056;14.408;2023-06-10T12:55:59;8.48;;;4.82;;
38911;SDS011;28444;48.056;14.408;2023-06-10T12:58:48;10.20;;;6.55;;
38911;SDS011;28444;48.056;14.408;2023-06-10T13:01:37;8.07;;;7.25;;
38911;SDS011;28444;48.056;14.408;2023-06-10T13:04:24;12.02;;;6.50;;
38911;SDS011;28444;48.056;14.408;2023-06-10T13:07:12;10.95;;;4.95;;
38911;SDS011;28444;48.056;14.408;2023-06-10T13:09:59;4.93;;;4.43;;
38911;SDS011;28444;48.056;14.408;2023-06-10T13:12:47;11.85;;;6.85;;
38911;SDS011;28444;48.056;14.408;2023-06-10T13:15:34;12.57;;;6.10;;
38911;SDS011;28444;48.056;14.408;2023-06-10T13:18:29;8.55;;;5.43;;
38911;SDS011;28444;48.056;14.408;2023-06-10T13:21:16;12.05;;;6.70;;
38911;SDS011;28444;48.056;14.408;2023-06-10T13:24:03;9.98;;;7.90;;
38911;SDS011;28444;48.056;14.408;2023-06-10T13:26:50;14.07;;;8.13;;
38911;SDS011;28444;48.056;14.408;2023-06-10T13:29:37;14.13;;;8.27;;
38911;SDS011;28444;48.056;14.408;2023-06-10T13:32:24;16.98;;;9.15;;
38911;SDS011;28444;48.056;14.408;2023-06-10T13:35:11;13.25;;;7.93;;
38911;SDS011;28444;48.056;14.408;2023-06-10T13:37:58;14.20;;;8.50;;
38911;SDS011;28444;48.056;14.408;2023-06-10T13:40:45;13.18;;;8.15;;
38911;SDS011;28444;48.056;14.408;2023-06-10T13:43:32;11.98;;;8.27;;
38911;SDS011;28444;48.056;14.408;2023-06-10T13:46:19;14.65;;;8.43;;
38911;SDS011;28444;48.056;14.408;2023-06-10T13:49:08;12.50;;;8.07;;
38911;SDS011;28444;48.056;14.408;2023-06-10T13:51:55;12.02;;;8.18;;
38911;SDS011;28444;48.056;14.408;2023-06-10T13:54:42;12.70;;;8.65;;
38911;SDS011;28444;48.056;14.408;2023-06-10T13:57:29;14.38;;;8.73;;
38911;SDS011;28444;48.056;14.408;2023-06-10T14:00:16;10.95;;;8.23;;
38911;SDS011;28444;48.056;14.408;2023-06-10T14:03:03;12.57;;;8.63;;
38911;SDS011;28444;48.056;14.408;2023-06-10T14:05:51;14.88;;;9.05;;
38911;SDS011;28444;48.056;14.408;2023-06-10T14:08:38;10.57;;;7.63;;
38911;SDS011;28444;48.056;14.408;2023-06-10T14:11:25;10.27;;;8.27;;
38911;SDS011;28444;48.056;14.408;2023-06-10T14:14:12;12.57;;;8.77;;
38911;SDS011;28444;48.056;14.408;2023-06-10T14:17:00;14.82;;;8.48;;
38911;SDS011;28444;48.056;14.408;2023-06-10T14:19:48;14.18;;;10.88;;
38911;SDS011;28444;48.056;14.408;2023-06-10T14:22:35;12.38;;;9.57;;
38911;SDS011;28444;48.056;14.408;2023-06-10T14:25:22;13.18;;;10.27;;
38911;SDS011;28444;48.056;14.408;2023-06-10T14:28:08;13.95;;;9.23;;
38911;SDS011;28444;48.056;14.408;2023-06-10T14:30:55;13.95;;;10.27;;
38911;SDS011;28444;48.056;14.408;2023-06-10T14:33:44;11.82;;;9.77;;
38911;SDS011;28444;48.056;14.408;2023-06-10T14:36:31;12.02;;;8.95;;
38911;SDS011;28444;48.056;14.408;2023-06-10T14:39:18;17.00;;;10.65;;
38911;SDS011;28444;48.056;14.408;2023-06-10T14:42:05;13.23;;;9.30;;
38911;SDS011;28444;48.056;14.408;2023-06-10T14:44:53;12.35;;;9.35;;
38911;SDS011;28444;48.056;14.408;2023-06-10T14:47:40;12.85;;;10.25;;
38911;SDS011;28444;48.056;14.408;2023-06-10T14:50:27;14.05;;;10.30;;
38911;SDS011;28444;48.056;14.408;2023-06-10T14:53:13;13.98;;;9.48;;
38911;SDS011;28444;48.056;14.408;2023-06-10T14:56:00;14.68;;;9.60;;
38911;SDS011;28444;48.056;14.408;2023-06-10T14:58:47;11.15;;;9.88;;
38911;SDS011;28444;48.056;14.408;2023-06-10T15:01:34;13.70;;;11.45;;
38911;SDS011;28444;48.056;14.408;2023-06-10T15:04:21;10.52;;;9.40;;
38911;SDS011;28444;48.056;14.408;2023-06-10T15:07:10;13.63;;;10.35;;
38911;SDS011;28444;48.056;14.408;2023-06-10T15:09:57;22.45;;;11.27;;
38911;SDS011;28444;48.056;14.408;2023-06-10T15:12:43;15.73;;;11.07;;
38911;SDS011;28444;48.056;14.408;2023-06-10T15:15:30;12.65;;;10.60;;
38911;SDS011;28444;48.056;14.408;2023-06-10T15:18:17;16.42;;;12.15;;
38911;SDS011;28444;48.056;14.408;2023-06-10T15:21:04;13.07;;;10.50;;
38911;SDS011;28444;48.056;14.408;2023-06-10T15:23:51;14.38;;;9.65;;
38911;SDS011;28444;48.056;14.408;2023-06-10T15:26:38;13.93;;;10.65;;
38911;SDS011;28444;48.056;14.408;2023-06-10T15:29:25;19.27;;;11.10;;
38911;SDS011;28444;48.056;14.408;2023-06-10T15:32:13;12.93;;;9.18;;
38911;SDS011;28444;48.056;14.408;2023-06-10T15:35:05;14.55;;;9.88;;
38911;SDS011;28444;48.056;14.408;2023-06-10T15:37:52;12.38;;;10.20;;
38911;SDS011;28444;48.056;14.408;2023-06-10T15:40:42;12.10;;;9.93;;
38911;SDS011;28444;48.056;14.408;2023-06-10T15:43:29;27.30;;;10.05;;
38911;SDS011;28444;48.056;14.408;2023-06-10T15:46:16;13.98;;;9.93;;
38911;SDS011;28444;48.056;14.408;2023-06-10T15:49:03;16.52;;;9.70;;
38911;SDS011;28444;48.056;14.408;2023-06-10T15:51:50;12.00;;;9.68;;
38911;SDS011;28444;48.056;14.408;2023-06-10T15:54:37;11.05;;;9.43;;
38911;SDS011;28444;48.056;14.408;2023-06-10T15:57:24;12.27;;;9.90;;
38911;SDS011;28444;48.056;14.408;2023-06-10T16:00:13;11.55;;;10.30;;
38911;SDS011;28444;48.056;14.408;2023-06-10T16:03:00;13.55;;;9.68;;
38911;SDS011;28444;48.056;14.408;2023-06-10T16:05:47;15.68;;;9.85;;
38911;SDS011;28444;48.056;14.408;2023-06-10T16:08:34;11.70;;;10.00;;
38911;SDS011;28444;48.056;14.408;2023-06-10T16:11:21;16.33;;;9.48;;
38911;SDS011;28444;48.056;14.408;2023-06-10T16:14:09;13.05;;;9.50;;
38911;SDS011;28444;48.056;14.408;2023-06-10T16:16:56;13.27;;;9.40;;
38911;SDS011;28444;48.056;14.408;2023-06-10T16:19:44;9.93;;;8.65;;
38911;SDS011;28444;48.056;14.408;2023-06-10T16:22:31;11.88;;;10.00;;
38911;SDS011;28444;48.056;14.408;2023-06-10T16:25:18;12.55;;;8.60;;
38911;SDS011;28444;48.056;14.408;2023-06-10T16:28:05;10.07;;;8.85;;
38911;SDS011;28444;48.056;14.408;2023-06-10T16:30:52;13.07;;;9.43;;